sensor_id;sensor_type;location;lat;lon;timestamp;P1;durP1;ratioP1;P2;durP2;ratioP2
48114;SDS011;33903;44.704;10.448;2024-03-08T00:02:52;3.90;;;2.38;;
48114;SDS011;33903;44.704;10.448;2024-03-08T00:05:57;3.85;;;1.70;;
48114;SDS011;33903;44.704;10.448;2024-03-08T00:09:02;4.38;;;1.50;;
48114;SDS011;33903;44.704;10.448;2024-03-08T00:12:06;2.92;;;1.60;;
48114;SDS011;33903;44.704;10.448;2024-03-08T00:15:11;5.22;;;2.05;;
48114;SDS011;33903;44.704;10.448;2024-03-08T00:18:18;3.38;;;1.70;;
48114;SDS011;33903;44.704;10.448;2024-03-08T00:21:22;6.72;;;1.88;;
48114;SDS011;33903;44.704;10.448;2024-03-08T00:24:27;3.15;;;1.90;;
48114;SDS011;33903;44.704;10.448;2024-03-08T00:27:33;5.05;;;2.30;;
48114;SDS011;33903;44.704;10.448;2024-03-08T00:30:37;3.60;;;1.92;;
48114;SDS011;33903;44.704;10.448;2024-03-08T00:33:41;3.97;;;1.80;;
48114;SDS011;33903;44.704;10.448;2024-03-08T00:36:46;6.45;;;2.20;;
48114;SDS011;33903;44.704;10.448;2024-03-08T00:39:52;4.63;;;1.80;;
48114;SDS011;33903;44.704;10.448;2024-03-08T00:42:57;9.23;;;2.00;;
48114;SDS011;33903;44.704;10.448;2024-03-08T00:46:01;4.00;;;1.60;;
48114;SDS011;33903;44.704;10.448;2024-03-08T00:49:07;3.45;;;1.80;;
48114;SDS011;33903;44.704;10.448;2024-03-08T00:52:11;3.47;;;1.80;;
48114;SDS011;33903;44.704;10.448;2024-03-08T00:55:16;3.88;;;1.70;;
48114;SDS011;33903;44.704;10.448;2024-03-08T00:58:21;4.40;;;1.50;;
48114;SDS011;33903;44.704;10.448;2024-03-08T01:01:28;6.05;;;1.65;;
48114;SDS011;33903;44.704;10.448;2024-03-08T01:04:32;5.75;;;1.70;;
48114;SDS011;33903;44.704;10.448;2024-03-08T01:07:37;5.32;;;1.60;;
48114;SDS011;33903;44.704;10.448;2024-03-08T01:10:41;3.90;;;1.55;;
48114;SDS011;33903;44.704;10.448;2024-03-08T01:13:45;4.38;;;1.60;;
48114;SDS011;33903;44.704;10.448;2024-03-08T01:16:51;4.28;;;2.80;;
48114;SDS011;33903;44.704;10.448;2024-03-08T01:19:55;4.18;;;2.00;;
48114;SDS011;33903;44.704;10.448;2024-03-08T01:22:59;6.25;;;2.47;;
48114;SDS011;33903;44.704;10.448;2024-03-08T01:26:03;4.70;;;2.70;;
48114;SDS011;33903;44.704;10.448;2024-03-08T01:29:08;6.15;;;3.05;;
48114;SDS011;33903;44.704;10.448;2024-03-08T01:32:13;4.88;;;2.72;;
48114;SDS011;33903;44.704;10.448;2024-03-08T01:35:18;4.68;;;2.60;;
48114;SDS011;33903;44.704;10.448;2024-03-08T01:38:23;6.97;;;2.65;;
48114;SDS011;33903;44.704;10.448;2024-03-08T01:41:28;8.02;;;3.30;;
48114;SDS011;33903;44.704;10.448;2024-03-08T01:44:33;6.47;;;3.13;;
48114;SDS011;33903;44.704;10.448;2024-03-08T01:47:38;9.35;;;4.00;;
48114;SDS011;33903;44.704;10.448;2024-03-08T01:50:42;7.22;;;4.25;;
48114;SDS011;33903;44.704;10.448;2024-03-08T01:53:48;7.05;;;4.07;;
48114;SDS011;33903;44.704;10.448;2024-03-08T01:56:53;6.60;;;4.00;;
48114;SDS011;33903;44.704;10.448;2024-03-08T01:59:57;9.02;;;5.47;;
48114;SDS011;33903;44.704;10.448;2024-03-08T02:03:02;12.25;;;6.65;;
48114;SDS011;33903;44.704;10.448;2024-03-08T02:06:07;13.02;;;7.75;;
48114;SDS011;33903;44.704;10.448;2024-03-08T02:09:14;14.63;;;8.55;;
48114;SDS011;33903;44.704;10.448;2024-03-08T02:12:18;18.05;;;8.77;;
48114;SDS011;33903;44.704;10.448;2024-03-08T02:15:24;15.13;;;9.13;;
48114;SDS011;33903;44.704;10.448;2024-03-08T02:18:30;14.75;;;9.00;;
48114;SDS011;33903;44.704;10.448;2024-03-08T02:21:35;17.90;;;10.85;;
48114;SDS011;33903;44.704;10.448;2024-03-08T02:24:41;17.80;;;11.10;;
48114;SDS011;33903;44.704;10.448;2024-03-08T02:27:45;20.20;;;11.50;;
48114;SDS011;33903;44.704;10.448;2024-03-08T02:30:50;17.90;;;10.93;;
48114;SDS011;33903;44.704;10.448;2024-03-08T02:33:55;18.23;;;10.48;;
48114;SDS011;33903;44.704;10.448;2024-03-08T02:37:00;16.80;;;9.40;;
48114;SDS011;33903;44.704;10.448;2024-03-08T02:40:04;18.08;;;10.25;;
48114;SDS011;33903;44.704;10.448;2024-03-08T02:43:09;15.10;;;10.00;;
48114;SDS011;33903;44.704;10.448;2024-03-08T02:46:14;16.17;;;9.07;;
48114;SDS011;33903;44.704;10.448;2024-03-08T02:49:19;16.95;;;9.18;;
48114;SDS011;33903;44.704;10.448;2024-03-08T02:52:24;16.95;;;8.55;;
48114;SDS011;33903;44.704;10.448;2024-03-08T02:55:29;25.13;;;9.23;;
48114;SDS011;33903;44.704;10.448;2024-03-08T02:58:33;15.23;;;7.10;;
48114;SDS011;33903;44.704;10.448;2024-03-08T03:01:37;13.18;;;6.35;;
48114;SDS011;33903;44.704;10.448;2024-03-08T03:04:42;10.80;;;5.20;;
48114;SDS011;33903;44.704;10.448;2024-03-08T03:07:47;9.32;;;4.57;;
48114;SDS011;33903;44.704;10.448;2024-03-08T03:10:52;7.10;;;3.22;;
48114;SDS011;33903;44.704;10.448;2024-03-08T03:14:00;8.02;;;3.38;;
48114;SDS011;33903;44.704;10.448;2024-03-08T03:17:04;5.45;;;3.45;;
48114;SDS011;33903;44.704;10.448;2024-03-08T03:20:08;5.65;;;3.08;;
48114;SDS011;33903;44.704;10.448;2024-03-08T03:23:16;5.65;;;2.70;;
48114;SDS011;33903;44.704;10.448;2024-03-08T03:26:24;7.38;;;2.88;;
48114;SDS011;33903;44.704;10.448;2024-03-08T03:29:28;5.78;;;2.95;;
48114;SDS011;33903;44.704;10.448;2024-03-08T03:32:34;4.82;;;2.80;;
48114;SDS011;33903;44.704;10.448;2024-03-08T03:35:50;6.35;;;3.03;;
48114;SDS011;33903;44.704;10.448;2024-03-08T03:38:56;3.92;;;2.70;;
48114;SDS011;33903;44.704;10.448;2024-03-08T03:45:23;5.07;;;2.60;;
48114;SDS011;33903;44.704;10.448;2024-03-08T03:48:28;8.45;;;3.17;;
48114;SDS011;33903;44.704;10.448;2024-03-08T03:51:33;5.65;;;2.75;;
48114;SDS011;33903;44.704;10.448;2024-03-08T03:54:37;8.73;;;2.88;;
48114;SDS011;33903;44.704;10.448;2024-03-08T03:57:41;8.07;;;2.15;;
48114;SDS011;33903;44.704;10.448;2024-03-08T04:00:46;4.50;;;2.13;;
48114;SDS011;33903;44.704;10.448;2024-03-08T04:03:50;9.88;;;2.05;;
48114;SDS011;33903;44.704;10.448;2024-03-08T04:06:54;7.50;;;2.40;;
48114;SDS011;33903;44.704;10.448;2024-03-08T04:09:59;6.50;;;2.22;;
48114;SDS011;33903;44.704;10.448;2024-03-08T04:13:08;3.72;;;2.10;;
48114;SDS011;33903;44.704;10.448;2024-03-08T04:16:13;3.63;;;2.00;;
48114;SDS011;33903;44.704;10.448;2024-03-08T04:19:17;3.58;;;2.00;;
48114;SDS011;33903;44.704;10.448;2024-03-08T04:22:23;5.07;;;1.92;;
48114;SDS011;33903;44.704;10.448;2024-03-08T04:25:27;4.00;;;2.00;;
48114;SDS011;33903;44.704;10.448;2024-03-08T04:28:32;5.35;;;2.08;;
48114;SDS011;33903;44.704;10.448;2024-03-08T04:31:36;8.45;;;2.35;;
48114;SDS011;33903;44.704;10.448;2024-03-08T04:34:41;4.90;;;2.10;;
48114;SDS011;33903;44.704;10.448;2024-03-08T04:37:46;5.32;;;2.58;;
48114;SDS011;33903;44.704;10.448;2024-03-08T04:40:50;4.10;;;1.90;;
48114;SDS011;33903;44.704;10.448;2024-03-08T04:43:55;6.05;;;2.38;;
48114;SDS011;33903;44.704;10.448;2024-03-08T04:47:01;4.13;;;1.77;;
48114;SDS011;33903;44.704;10.448;2024-03-08T04:50:05;4.43;;;1.90;;
48114;SDS011;33903;44.704;10.448;2024-03-08T04:53:10;4.13;;;1.80;;
48114;SDS011;33903;44.704;10.448;2024-03-08T04:56:14;4.03;;;1.70;;
48114;SDS011;33903;44.704;10.448;2024-03-08T04:59:19;6.40;;;2.25;;
48114;SDS011;33903;44.704;10.448;2024-03-08T05:02:24;6.47;;;2.90;;
48114;SDS011;33903;44.704;10.448;2024-03-08T05:05:28;6.57;;;2.55;;
48114;SDS011;33903;44.704;10.448;2024-03-08T05:08:34;6.85;;;3.22;;
48114;SDS011;33903;44.704;10.448;2024-03-08T05:11:42;5.72;;;2.85;;
48114;SDS011;33903;44.704;10.448;2024-03-08T05:14:48;7.38;;;4.25;;
48114;SDS011;33903;44.704;10.448;2024-03-08T05:17:53;5.80;;;3.45;;
48114;SDS011;33903;44.704;10.448;2024-03-08T05:20:59;8.23;;;3.72;;
48114;SDS011;33903;44.704;10.448;2024-03-08T05:24:04;7.32;;;3.40;;
48114;SDS011;33903;44.704;10.448;2024-03-08T05:27:09;6.90;;;3.67;;
48114;SDS011;33903;44.704;10.448;2024-03-08T05:30:13;10.35;;;4.57;;
48114;SDS011;33903;44.704;10.448;2024-03-08T05:33:19;10.45;;;4.65;;
48114;SDS011;33903;44.704;10.448;2024-03-08T05:36:23;11.85;;;3.75;;
48114;SDS011;33903;44.704;10.448;2024-03-08T05:39:27;7.20;;;3.75;;
48114;SDS011;33903;44.704;10.448;2024-03-08T05:42:32;13.73;;;4.20;;
48114;SDS011;33903;44.704;10.448;2024-03-08T05:45:37;10.05;;;4.80;;
48114;SDS011;33903;44.704;10.448;2024-03-08T05:48:41;9.85;;;4.30;;
48114;SDS011;33903;44.704;10.448;2024-03-08T05:51:46;8.43;;;4.65;;
48114;SDS011;33903;44.704;10.448;2024-03-08T05:54:51;11.60;;;5.28;;
48114;SDS011;33903;44.704;10.448;2024-03-08T05:57:56;16.27;;;7.03;;
48114;SDS011;33903;44.704;10.448;2024-03-08T06:01:00;11.77;;;7.00;;
48114;SDS011;33903;44.704;10.448;2024-03-08T06:04:05;12.35;;;6.38;;
48114;SDS011;33903;44.704;10.448;2024-03-08T06:07:09;17.42;;;7.13;;
48114;SDS011;33903;44.704;10.448;2024-03-08T06:10:16;15.20;;;6.00;;
48114;SDS011;33903;44.704;10.448;2024-03-08T06:13:21;16.65;;;6.50;;
48114;SDS011;33903;44.704;10.448;2024-03-08T06:16:26;13.95;;;5.65;;
48114;SDS011;33903;44.704;10.448;2024-03-08T06:19:33;18.33;;;8.35;;
48114;SDS011;33903;44.704;10.448;2024-03-08T06:22:40;16.60;;;7.53;;
48114;SDS011;33903;44.704;10.448;2024-03-08T06:25:48;21.85;;;9.93;;
48114;SDS011;33903;44.704;10.448;2024-03-08T06:28:54;24.38;;;9.18;;
48114;SDS011;33903;44.704;10.448;2024-03-08T06:31:59;28.17;;;10.63;;
48114;SDS011;33903;44.704;10.448;2024-03-08T06:35:04;33.80;;;13.48;;
48114;SDS011;33903;44.704;10.448;2024-03-08T06:38:10;46.05;;;14.55;;
48114;SDS011;33903;44.704;10.448;2024-03-08T06:41:15;30.30;;;15.30;;
48114;SDS011;33903;44.704;10.448;2024-03-08T06:44:20;42.03;;;17.08;;
48114;SDS011;33903;44.704;10.448;2024-03-08T06:47:26;38.28;;;16.75;;
48114;SDS011;33903;44.704;10.448;2024-03-08T06:50:30;40.30;;;16.27;;
48114;SDS011;33903;44.704;10.448;2024-03-08T06:53:36;35.63;;;17.52;;
48114;SDS011;33903;44.704;10.448;2024-03-08T06:56:42;40.58;;;18.92;;
48114;SDS011;33903;44.704;10.448;2024-03-08T06:59:48;35.83;;;18.42;;
48114;SDS011;33903;44.704;10.448;2024-03-08T07:02:53;35.03;;;18.60;;
48114;SDS011;33903;44.704;10.448;2024-03-08T07:06:00;34.92;;;18.08;;
48114;SDS011;33903;44.704;10.448;2024-03-08T07:09:06;37.45;;;17.00;;
48114;SDS011;33903;44.704;10.448;2024-03-08T07:12:11;37.78;;;16.33;;
48114;SDS011;33903;44.704;10.448;2024-03-08T07:15:17;38.13;;;17.35;;
48114;SDS011;33903;44.704;10.448;2024-03-08T07:18:23;32.72;;;17.00;;
48114;SDS011;33903;44.704;10.448;2024-03-08T07:21:28;29.73;;;15.82;;
48114;SDS011;33903;44.704;10.448;2024-03-08T07:24:34;29.95;;;17.73;;
48114;SDS011;33903;44.704;10.448;2024-03-08T07:28:15;43.65;;;22.52;;
48114;SDS011;33903;44.704;10.448;2024-03-08T07:31:20;36.28;;;17.25;;
48114;SDS011;33903;44.704;10.448;2024-03-08T07:34:42;33.30;;;18.90;;
48114;SDS011;33903;44.704;10.448;2024-03-08T07:37:47;34.17;;;17.67;;
48114;SDS011;33903;44.704;10.448;2024-03-08T07:40:54;32.08;;;19.98;;
48114;SDS011;33903;44.704;10.448;2024-03-08T07:43:58;35.75;;;18.13;;
48114;SDS011;33903;44.704;10.448;2024-03-08T07:47:04;33.25;;;18.67;;
48114;SDS011;33903;44.704;10.448;2024-03-08T07:50:11;44.38;;;23.73;;
48114;SDS011;33903;44.704;10.448;2024-03-08T07:53:20;35.38;;;19.35;;
48114;SDS011;33903;44.704;10.448;2024-03-08T07:56:25;39.85;;;21.13;;
48114;SDS011;33903;44.704;10.448;2024-03-08T07:59:29;37.50;;;19.08;;
48114;SDS011;33903;44.704;10.448;2024-03-08T08:02:35;38.25;;;21.63;;
48114;SDS011;33903;44.704;10.448;2024-03-08T08:05:40;32.33;;;18.75;;
48114;SDS011;33903;44.704;10.448;2024-03-08T08:08:47;43.58;;;24.70;;
48114;SDS011;33903;44.704;10.448;2024-03-08T08:11:52;32.33;;;20.65;;
48114;SDS011;33903;44.704;10.448;2024-03-08T08:14:56;35.50;;;20.00;;
48114;SDS011;33903;44.704;10.448;2024-03-08T08:18:01;33.55;;;20.45;;
48114;SDS011;33903;44.704;10.448;2024-03-08T08:21:07;33.20;;;20.38;;
48114;SDS011;33903;44.704;10.448;2024-03-08T08:24:11;36.08;;;19.85;;
48114;SDS011;33903;44.704;10.448;2024-03-08T08:27:16;36.13;;;20.17;;
48114;SDS011;33903;44.704;10.448;2024-03-08T08:30:20;32.88;;;18.92;;
48114;SDS011;33903;44.704;10.448;2024-03-08T08:33:25;30.73;;;19.00;;
48114;SDS011;33903;44.704;10.448;2024-03-08T08:36:31;32.47;;;19.52;;
48114;SDS011;33903;44.704;10.448;2024-03-08T08:39:35;26.30;;;17.65;;
48114;SDS011;33903;44.704;10.448;2024-03-08T08:42:40;31.10;;;18.80;;
48114;SDS011;33903;44.704;10.448;2024-03-08T08:45:45;30.17;;;18.33;;
48114;SDS011;33903;44.704;10.448;2024-03-08T08:48:51;31.05;;;18.52;;
48114;SDS011;33903;44.704;10.448;2024-03-08T08:51:56;32.38;;;18.95;;
48114;SDS011;33903;44.704;10.448;2024-03-08T08:55:02;30.73;;;18.63;;
48114;SDS011;33903;44.704;10.448;2024-03-08T08:58:08;29.00;;;17.70;;
48114;SDS011;33903;44.704;10.448;2024-03-08T09:01:14;29.52;;;18.63;;
48114;SDS011;33903;44.704;10.448;2024-03-08T09:04:19;26.58;;;18.05;;
48114;SDS011;33903;44.704;10.448;2024-03-08T09:07:25;28.48;;;18.20;;
48114;SDS011;33903;44.704;10.448;2024-03-08T09:10:32;27.92;;;17.80;;
48114;SDS011;33903;44.704;10.448;2024-03-08T09:14:01;27.88;;;17.38;;
48114;SDS011;33903;44.704;10.448;2024-03-08T09:17:06;27.40;;;17.67;;
48114;SDS011;33903;44.704;10.448;2024-03-08T09:20:13;29.58;;;18.42;;
48114;SDS011;33903;44.704;10.448;2024-03-08T09:23:21;26.77;;;17.17;;
48114;SDS011;33903;44.704;10.448;2024-03-08T09:26:26;30.02;;;18.33;;
48114;SDS011;33903;44.704;10.448;2024-03-08T09:29:30;36.63;;;19.10;;
48114;SDS011;33903;44.704;10.448;2024-03-08T09:32:35;34.85;;;19.38;;
48114;SDS011;33903;44.704;10.448;2024-03-08T09:35:40;28.70;;;18.08;;
48114;SDS011;33903;44.704;10.448;2024-03-08T09:38:45;25.92;;;18.63;;
48114;SDS011;33903;44.704;10.448;2024-03-08T09:41:51;27.30;;;17.20;;
48114;SDS011;33903;44.704;10.448;2024-03-08T09:44:55;24.98;;;16.52;;
48114;SDS011;33903;44.704;10.448;2024-03-08T09:48:01;26.52;;;17.20;;
48114;SDS011;33903;44.704;10.448;2024-03-08T09:51:07;28.63;;;18.33;;
48114;SDS011;33903;44.704;10.448;2024-03-08T09:54:12;28.98;;;16.75;;
48114;SDS011;33903;44.704;10.448;2024-03-08T09:57:18;30.15;;;18.77;;
48114;SDS011;33903;44.704;10.448;2024-03-08T10:00:22;28.67;;;18.15;;
48114;SDS011;33903;44.704;10.448;2024-03-08T10:03:28;28.35;;;18.75;;
48114;SDS011;33903;44.704;10.448;2024-03-08T10:06:34;30.10;;;17.88;;
48114;SDS011;33903;44.704;10.448;2024-03-08T10:09:40;33.15;;;19.17;;
48114;SDS011;33903;44.704;10.448;2024-03-08T10:12:51;28.50;;;18.38;;
48114;SDS011;33903;44.704;10.448;2024-03-08T10:15:56;31.98;;;18.70;;
48114;SDS011;33903;44.704;10.448;2024-03-08T10:19:01;31.25;;;18.02;;
48114;SDS011;33903;44.704;10.448;2024-03-08T10:22:07;30.67;;;19.20;;
48114;SDS011;33903;44.704;10.448;2024-03-08T10:25:20;28.08;;;18.70;;
48114;SDS011;33903;44.704;10.448;2024-03-08T10:28:24;28.52;;;18.88;;
48114;SDS011;33903;44.704;10.448;2024-03-08T10:31:29;30.92;;;19.15;;
48114;SDS011;33903;44.704;10.448;2024-03-08T10:34:38;26.00;;;18.65;;
48114;SDS011;33903;44.704;10.448;2024-03-08T10:37:47;24.38;;;15.50;;
48114;SDS011;33903;44.704;10.448;2024-03-08T10:41:09;23.25;;;15.45;;
48114;SDS011;33903;44.704;10.448;2024-03-08T10:48:27;25.13;;;16.83;;
48114;SDS011;33903;44.704;10.448;2024-03-08T10:51:36;24.50;;;16.60;;
48114;SDS011;33903;44.704;10.448;2024-03-08T10:54:42;28.65;;;18.45;;
48114;SDS011;33903;44.704;10.448;2024-03-08T10:57:49;25.83;;;16.63;;
48114;SDS011;33903;44.704;10.448;2024-03-08T11:00:56;26.85;;;17.10;;
48114;SDS011;33903;44.704;10.448;2024-03-08T11:04:03;23.42;;;16.50;;
48114;SDS011;33903;44.704;10.448;2024-03-08T11:07:10;25.70;;;17.17;;
48114;SDS011;33903;44.704;10.448;2024-03-08T11:10:21;22.88;;;15.82;;
48114;SDS011;33903;44.704;10.448;2024-03-08T11:13:39;19.15;;;14.65;;
48114;SDS011;33903;44.704;10.448;2024-03-08T11:16:45;21.77;;;15.40;;
48114;SDS011;33903;44.704;10.448;2024-03-08T11:19:50;23.75;;;14.55;;
48114;SDS011;33903;44.704;10.448;2024-03-08T11:23:00;20.55;;;15.02;;
48114;SDS011;33903;44.704;10.448;2024-03-08T11:26:17;21.98;;;14.30;;
48114;SDS011;33903;44.704;10.448;2024-03-08T11:32:43;17.05;;;12.48;;
48114;SDS011;33903;44.704;10.448;2024-03-08T11:35:49;17.35;;;12.65;;
48114;SDS011;33903;44.704;10.448;2024-03-08T11:38:54;17.35;;;11.82;;
48114;SDS011;33903;44.704;10.448;2024-03-08T11:42:02;21.20;;;14.23;;
48114;SDS011;33903;44.704;10.448;2024-03-08T11:45:10;20.83;;;14.40;;
48114;SDS011;33903;44.704;10.448;2024-03-08T11:48:15;20.08;;;15.25;;
48114;SDS011;33903;44.704;10.448;2024-03-08T11:51:19;20.85;;;15.30;;
48114;SDS011;33903;44.704;10.448;2024-03-08T11:54:23;23.45;;;14.88;;
48114;SDS011;33903;44.704;10.448;2024-03-08T11:57:28;19.50;;;13.70;;
48114;SDS011;33903;44.704;10.448;2024-03-08T12:00:33;24.05;;;16.52;;
48114;SDS011;33903;44.704;10.448;2024-03-08T12:03:42;19.83;;;14.40;;
48114;SDS011;33903;44.704;10.448;2024-03-08T12:06:47;16.17;;;12.27;;
48114;SDS011;33903;44.704;10.448;2024-03-08T12:13:22;16.60;;;11.43;;
48114;SDS011;33903;44.704;10.448;2024-03-08T12:16:28;17.85;;;11.02;;
48114;SDS011;33903;44.704;10.448;2024-03-08T12:19:32;15.15;;;10.68;;
48114;SDS011;33903;44.704;10.448;2024-03-08T12:22:40;16.55;;;11.38;;
48114;SDS011;33903;44.704;10.448;2024-03-08T12:25:46;14.02;;;10.68;;
48114;SDS011;33903;44.704;10.448;2024-03-08T12:28:52;12.70;;;9.52;;
48114;SDS011;33903;44.704;10.448;2024-03-08T12:31:58;22.27;;;15.13;;
48114;SDS011;33903;44.704;10.448;2024-03-08T12:35:07;14.05;;;11.35;;
48114;SDS011;33903;44.704;10.448;2024-03-08T12:38:14;14.85;;;11.20;;
48114;SDS011;33903;44.704;10.448;2024-03-08T12:41:19;14.15;;;10.75;;
48114;SDS011;33903;44.704;10.448;2024-03-08T12:44:25;13.48;;;10.45;;
48114;SDS011;33903;44.704;10.448;2024-03-08T12:47:30;17.65;;;11.30;;
48114;SDS011;33903;44.704;10.448;2024-03-08T12:50:35;13.90;;;10.68;;
48114;SDS011;33903;44.704;10.448;2024-03-08T12:53:40;13.65;;;10.52;;
48114;SDS011;33903;44.704;10.448;2024-03-08T12:56:45;11.60;;;9.55;;
48114;SDS011;33903;44.704;10.448;2024-03-08T12:59:52;15.27;;;9.73;;
48114;SDS011;33903;44.704;10.448;2024-03-08T13:02:58;12.23;;;9.45;;
48114;SDS011;33903;44.704;10.448;2024-03-08T13:06:03;13.10;;;9.32;;
48114;SDS011;33903;44.704;10.448;2024-03-08T13:09:12;10.93;;;8.75;;
48114;SDS011;33903;44.704;10.448;2024-03-08T13:12:16;10.82;;;8.63;;
48114;SDS011;33903;44.704;10.448;2024-03-08T13:15:20;14.68;;;9.52;;
48114;SDS011;33903;44.704;10.448;2024-03-08T13:18:25;12.57;;;8.93;;
48114;SDS011;33903;44.704;10.448;2024-03-08T13:21:29;12.25;;;8.65;;
48114;SDS011;33903;44.704;10.448;2024-03-08T13:24:35;14.43;;;7.88;;
48114;SDS011;33903;44.704;10.448;2024-03-08T13:27:40;10.10;;;7.40;;
48114;SDS011;33903;44.704;10.448;2024-03-08T13:30:50;11.23;;;7.45;;
48114;SDS011;33903;44.704;10.448;2024-03-08T13:33:55;12.30;;;7.95;;
48114;SDS011;33903;44.704;10.448;2024-03-08T13:37:01;13.95;;;7.88;;
48114;SDS011;33903;44.704;10.448;2024-03-08T13:40:07;12.90;;;7.95;;
48114;SDS011;33903;44.704;10.448;2024-03-08T13:43:17;11.32;;;7.28;;
48114;SDS011;33903;44.704;10.448;2024-03-08T13:46:22;10.30;;;7.47;;
48114;SDS011;33903;44.704;10.448;2024-03-08T13:49:28;12.88;;;7.72;;
48114;SDS011;33903;44.704;10.448;2024-03-08T13:52:33;13.45;;;8.63;;
48114;SDS011;33903;44.704;10.448;2024-03-08T13:55:39;11.02;;;8.45;;
48114;SDS011;33903;44.704;10.448;2024-03-08T13:58:45;12.25;;;7.63;;
48114;SDS011;33903;44.704;10.448;2024-03-08T14:01:49;11.25;;;7.55;;
48114;SDS011;33903;44.704;10.448;2024-03-08T14:04:54;13.80;;;8.13;;
48114;SDS011;33903;44.704;10.448;2024-03-08T14:07:59;12.32;;;8.18;;
48114;SDS011;33903;44.704;10.448;2024-03-08T14:11:05;12.35;;;8.00;;
48114;SDS011;33903;44.704;10.448;2024-03-08T14:14:17;11.38;;;8.68;;
48114;SDS011;33903;44.704;10.448;2024-03-08T14:17:21;15.77;;;9.48;;
48114;SDS011;33903;44.704;10.448;2024-03-08T14:20:27;12.38;;;8.43;;
48114;SDS011;33903;44.704;10.448;2024-03-08T14:23:32;13.77;;;9.23;;
48114;SDS011;33903;44.704;10.448;2024-03-08T14:26:37;14.40;;;8.48;;
48114;SDS011;33903;44.704;10.448;2024-03-08T14:29:43;13.40;;;8.60;;
48114;SDS011;33903;44.704;10.448;2024-03-08T14:32:47;15.13;;;9.48;;
48114;SDS011;33903;44.704;10.448;2024-03-08T14:35:52;13.10;;;8.93;;
48114;SDS011;33903;44.704;10.448;2024-03-08T14:38:56;13.10;;;9.18;;
48114;SDS011;33903;44.704;10.448;2024-03-08T14:42:01;12.48;;;8.20;;
48114;SDS011;33903;44.704;10.448;2024-03-08T14:45:07;14.57;;;9.43;;
48114;SDS011;33903;44.704;10.448;2024-03-08T14:48:13;13.50;;;9.27;;
48114;SDS011;33903;44.704;10.448;2024-03-08T14:51:18;13.85;;;9.20;;
48114;SDS011;33903;44.704;10.448;2024-03-08T14:54:25;13.32;;;8.80;;
48114;SDS011;33903;44.704;10.448;2024-03-08T14:57:29;14.15;;;9.48;;
48114;SDS011;33903;44.704;10.448;2024-03-08T15:00:37;17.75;;;9.30;;
48114;SDS011;33903;44.704;10.448;2024-03-08T15:03:44;15.10;;;8.85;;
48114;SDS011;33903;44.704;10.448;2024-03-08T15:06:48;10.90;;;8.40;;
48114;SDS011;33903;44.704;10.448;2024-03-08T15:09:53;12.90;;;8.15;;
48114;SDS011;33903;44.704;10.448;2024-03-08T15:13:02;13.00;;;8.27;;
48114;SDS011;33903;44.704;10.448;2024-03-08T15:16:23;13.97;;;8.87;;
48114;SDS011;33903;44.704;10.448;2024-03-08T15:19:29;11.85;;;8.55;;
48114;SDS011;33903;44.704;10.448;2024-03-08T15:22:33;15.07;;;9.68;;
48114;SDS011;33903;44.704;10.448;2024-03-08T15:25:38;14.20;;;9.18;;
48114;SDS011;33903;44.704;10.448;2024-03-08T15:28:46;13.35;;;8.90;;
48114;SDS011;33903;44.704;10.448;2024-03-08T15:31:55;12.88;;;9.07;;
48114;SDS011;33903;44.704;10.448;2024-03-08T15:34:59;17.00;;;8.65;;
48114;SDS011;33903;44.704;10.448;2024-03-08T15:38:04;13.77;;;9.02;;
48114;SDS011;33903;44.704;10.448;2024-03-08T15:41:13;12.43;;;8.43;;
48114;SDS011;33903;44.704;10.448;2024-03-08T15:44:18;13.20;;;8.43;;
48114;SDS011;33903;44.704;10.448;2024-03-08T15:47:22;11.88;;;8.45;;
48114;SDS011;33903;44.704;10.448;2024-03-08T15:50:30;14.05;;;9.30;;
48114;SDS011;33903;44.704;10.448;2024-03-08T15:53:36;21.38;;;10.38;;
48114;SDS011;33903;44.704;10.448;2024-03-08T15:56:44;16.38;;;8.90;;
48114;SDS011;33903;44.704;10.448;2024-03-08T15:59:49;15.43;;;8.25;;
48114;SDS011;33903;44.704;10.448;2024-03-08T16:02:53;11.90;;;8.68;;
48114;SDS011;33903;44.704;10.448;2024-03-08T16:05:58;13.18;;;8.73;;
48114;SDS011;33903;44.704;10.448;2024-03-08T16:09:03;14.85;;;8.65;;
48114;SDS011;33903;44.704;10.448;2024-03-08T16:12:08;20.33;;;9.30;;
48114;SDS011;33903;44.704;10.448;2024-03-08T16:15:14;18.20;;;11.05;;
48114;SDS011;33903;44.704;10.448;2024-03-08T16:18:19;15.50;;;9.48;;
48114;SDS011;33903;44.704;10.448;2024-03-08T16:21:27;17.50;;;10.10;;
48114;SDS011;33903;44.704;10.448;2024-03-08T16:24:34;18.77;;;9.80;;
48114;SDS011;33903;44.704;10.448;2024-03-08T16:27:41;15.02;;;10.90;;
48114;SDS011;33903;44.704;10.448;2024-03-08T16:30:47;13.63;;;9.13;;
48114;SDS011;33903;44.704;10.448;2024-03-08T16:33:58;12.32;;;8.63;;
48114;SDS011;33903;44.704;10.448;2024-03-08T16:37:02;13.18;;;9.27;;
48114;SDS011;33903;44.704;10.448;2024-03-08T16:40:07;15.35;;;9.88;;
48114;SDS011;33903;44.704;10.448;2024-03-08T16:43:19;19.80;;;10.18;;
48114;SDS011;33903;44.704;10.448;2024-03-08T16:46:23;14.35;;;10.32;;
48114;SDS011;33903;44.704;10.448;2024-03-08T16:49:28;12.38;;;9.25;;
48114;SDS011;33903;44.704;10.448;2024-03-08T16:52:34;12.70;;;9.60;;
48114;SDS011;33903;44.704;10.448;2024-03-08T16:55:42;13.40;;;9.18;;
48114;SDS011;33903;44.704;10.448;2024-03-08T16:58:46;13.48;;;9.43;;
48114;SDS011;33903;44.704;10.448;2024-03-08T17:01:51;14.07;;;9.70;;
48114;SDS011;33903;44.704;10.448;2024-03-08T17:04:56;13.02;;;9.00;;
48114;SDS011;33903;44.704;10.448;2024-03-08T17:08:01;16.92;;;9.73;;
48114;SDS011;33903;44.704;10.448;2024-03-08T17:11:10;13.55;;;9.35;;
48114;SDS011;33903;44.704;10.448;2024-03-08T17:14:15;14.90;;;9.68;;
48114;SDS011;33903;44.704;10.448;2024-03-08T17:17:19;14.30;;;10.10;;
48114;SDS011;33903;44.704;10.448;2024-03-08T17:20:25;13.10;;;9.35;;
48114;SDS011;33903;44.704;10.448;2024-03-08T17:23:30;15.02;;;9.52;;
48114;SDS011;33903;44.704;10.448;2024-03-08T17:26:36;13.23;;;9.55;;
48114;SDS011;33903;44.704;10.448;2024-03-08T17:29:40;11.45;;;9.13;;
48114;SDS011;33903;44.704;10.448;2024-03-08T17:32:46;15.15;;;10.10;;
48114;SDS011;33903;44.704;10.448;2024-03-08T17:35:57;14.32;;;9.80;;
48114;SDS011;33903;44.704;10.448;2024-03-08T17:39:01;16.58;;;10.43;;
48114;SDS011;33903;44.704;10.448;2024-03-08T17:42:06;15.43;;;9.95;;
48114;SDS011;33903;44.704;10.448;2024-03-08T17:45:11;15.52;;;10.30;;
48114;SDS011;33903;44.704;10.448;2024-03-08T17:48:17;12.98;;;9.43;;
48114;SDS011;33903;44.704;10.448;2024-03-08T17:51:23;16.83;;;10.57;;
48114;SDS011;33903;44.704;10.448;2024-03-08T17:54:27;18.20;;;10.18;;
48114;SDS011;33903;44.704;10.448;2024-03-08T17:57:32;14.88;;;10.63;;
48114;SDS011;33903;44.704;10.448;2024-03-08T18:00:37;12.95;;;9.60;;
48114;SDS011;33903;44.704;10.448;2024-03-08T18:03:43;13.52;;;9.40;;
48114;SDS011;33903;44.704;10.448;2024-03-08T18:06:48;13.95;;;9.85;;
48114;SDS011;33903;44.704;10.448;2024-03-08T18:09:54;22.35;;;11.00;;
48114;SDS011;33903;44.704;10.448;2024-03-08T18:12:59;18.52;;;10.55;;
48114;SDS011;33903;44.704;10.448;2024-03-08T18:16:18;15.68;;;9.95;;
48114;SDS011;33903;44.704;10.448;2024-03-08T18:19:23;18.33;;;11.05;;